Latest Coastal Weather Observations for Hervey Bay

IDQ60701

Issued at 9:52 am EST Thursday 23 November 2017 (issued every 10 minutes, with the page automatically refreshed every 10 minutes)

About coastal observations | Map of coastal stations | Coastal observations for QLD | Marine services | Other Formats
Station Details ID: 040405 Name: HERVEY BAY AIRPORT Lat: -25.32 Lon: 152.88 Height: 12.98 m
Data from the previous 72 hours. | See also: Recent months at Hervey Bay
Date/Time
EST
Temp
°C
Wind Pressure Rain since
9am
mm
Weather Cloud Vis
km
Sea
Height
m
Swell
Dir  Spd
kts
Gust
kts
hPa Trend Height
m
Period
s
Dir
23/09:30am 25.0 SE 7 13 1015.0 - 0.2 - Cloudy 10 - - - -
23/09:00am 23.5 ESE 7 10 1015.1 - 0.2 - Mostly cloudy 10 - - - -
23/08:30am 22.3 ESE 9 15 1015.3 - 0.2 - Partly cloudy 10 - - - -
23/08:00am 22.0 SE 8 13 1015.1 - 0.2 - Partly cloudy 10 - - - -
23/07:30am 22.1 S 6 8 1014.9 - 0.2 - Partly cloudy 10 - - - -
23/07:00am 20.7 SW 7 9 1014.5 - 0.2 - Partly cloudy 10 - - - -
23/06:30am 18.2 SSW 5 7 1014.3 - 0.2 - Cloudy 10 - - - -
23/06:00am 17.1 SSW 7 8 1014.1 - 0.2 - Mostly clear 10 - - - -
23/05:30am 16.7 SSW 6 8 1013.8 - 0.2 - Partly cloudy 10 - - - -
23/05:00am 16.5 SSW 7 9 1013.6 - 0.2 - - 10 - - - -
23/04:30am 16.5 SSW 5 7 1013.2 - 0.2 - Partly cloudy 10 - - - -
23/04:00am 16.6 SSW 7 10 1013.0 - 0.2 - Partly cloudy 10 - - - -
23/03:30am 16.5 SSW 7 9 1012.6 - 0.2 - - 10 - - - -
23/03:00am 16.5 SSW 6 7 1012.6 - 0.2 - - 9 - - - -
23/02:30am 16.6 SSW 4 5 1012.7 - 0.2 - - 10 - - - -
23/02:00am 16.5 SSW 5 7 1012.7 - 0.2 - - 10 - - - -
23/01:30am 16.6 SSW 6 8 1012.9 - 0.2 - - 10 - - - -
23/01:00am 16.6 SSW 7 8 1013.1 - 0.2 - - 10 - - - -
23/12:30am 16.5 SSW 7 8 1013.4 - 0.2 - - 10 - - - -
23/12:00am 16.7 SSW 6 8 1013.8 - 0.2 - - 10 - - - -
 
Date/Time
EST
Temp
°C
Wind Pressure Rain since
9am
mm
Weather Cloud Vis
km
Sea
Height
m
Swell
Dir  Spd
kts
Gust
kts
hPa Trend Height
m
Period
s
Dir
22/11:30pm 16.8 SW 5 7 1014.2 - 0.2 - - 10 - - - -
22/11:00pm 16.9 SSW 6 8 1014.4 - 0.2 - - 10 - - - -
22/10:30pm 17.5 SSW 5 7 1014.7 - 0.2 - - 10 - - - -
22/10:00pm 17.5 SSW 5 7 1015.0 - 0.2 - - 10 - - - -
22/09:30pm 17.6 SSW 5 7 1015.2 - 0.2 - - 10 - - - -
22/09:00pm 17.9 SSW 6 8 1015.3 - 0.2 - - 10 - - - -
22/08:30pm 18.4 S 5 7 1015.1 - 0.2 - Partly cloudy 10 - - - -
22/08:00pm 18.8 SSE 5 9 1015.1 - 0.2 - Partly cloudy 10 - - - -
22/07:30pm 18.9 S 4 6 1015.2 - 0.2 - Partly cloudy 10 - - - -
22/07:00pm 19.0 S 4 6 1015.1 - 0.2 - - 10 - - - -
22/06:30pm 19.4 S 5 8 1014.9 - 0.2 - Partly cloudy 10 - - - -
22/06:00pm 19.8 S 7 11 1014.8 - 0.2 - Cloudy 10 - - - -
22/05:30pm 20.5 SSE 8 14 1014.4 - 0.2 - Partly cloudy 10 - - - -
22/05:00pm 20.9 SSE 8 15 1014.3 - 0.2 - Partly cloudy 10 - - - -
22/04:30pm 21.1 SSE 10 15 1014.1 - 0.2 - Partly cloudy 10 - - - -
22/04:00pm 21.4 SSE 9 17 1013.9 - 0.2 - Partly cloudy 10 - - - -
22/03:30pm 21.3 SSE 11 14 1014.1 - 0.2 - Partly cloudy 10 - - - -
22/03:00pm 21.1 SSE 9 14 1014.2 - 0.2 - Cloudy 10 - - - -
22/02:30pm 21.5 SSE 11 17 1014.1 - 0.2 - Partly cloudy 10 - - - -
22/02:00pm 21.2 S 8 10 1014.2 - 0.2 - Partly cloudy 10 - - - -
22/01:30pm 21.1 S 7 11 1014.4 - 0.2 - Partly cloudy 10 - - - -
22/01:00pm 21.4 SE 9 13 1014.5 - 0.2 - Partly cloudy 10 - - - -
22/12:30pm 21.8 S 7 11 1014.4 - 0.0 - Partly cloudy 10 - - - -
22/12:00pm 20.3 S 6 9 1015.1 - 0.0 - Partly cloudy 10 - - - -
22/11:30am 19.4 SSW 6 8 1015.5 - 0.0 - Partly cloudy 10 - - - -
22/11:00am 19.3 S 8 13 1015.5 - 0.0 - Partly cloudy 10 - - - -
22/10:30am 21.5 SSW 6 9 1015.4 - 0.0 - Partly cloudy 10 - - - -
22/10:12am 21.4 SSW 7 9 1015.4 - 0.0 - Partly cloudy 10 - - - -
22/10:00am 20.8 SW 8 10 1015.5 - 0.0 - Partly cloudy 10 - - - -
22/09:48am 20.9 SSW 6 9 1015.5 - 0.0 - Partly cloudy 10 - - - -
22/09:30am 20.9 SW 5 8 1015.8 - 0.0 - Partly cloudy 10 - - - -
22/09:00am 20.8 SSW 4 7 1015.7 - 2.0 - Cloudy 10 - - - -
22/08:30am 19.6 SSW 5 7 1015.7 - 2.0 - Cloudy 10 - - - -
22/08:15am 19.2 SW 5 7 1015.6 - 2.0 - Partly cloudy 10 - - - -
22/08:00am 18.9 WSW 5 7 1015.8 - 2.0 - Partly cloudy 10 - - - -
22/07:42am 18.6 W 4 6 1015.9 - 2.0 - Partly cloudy 10 - - - -
22/07:37am 18.6 WSW 5 7 1015.9 - 2.0 - Partly cloudy 10 - - - -
22/07:30am 18.7 SW 5 8 1015.7 - 1.8 - Partly cloudy 10 - - - -
22/07:15am 18.6 SSW 9 14 1015.6 - 1.0 - Partly cloudy 5 - - - -
22/07:00am 18.8 SSW 8 12 1015.3 - 0.6 - Partly cloudy 10 - - - -
22/06:30am 19.0 S 5 8 1015.0 - 0.6 - Partly cloudy 10 - - - -
22/06:00am 18.6 SSE 6 8 1014.7 - 0.6 Rain Cloudy 8 - - - -
22/05:30am 18.4 S 6 9 1014.6 - 0.4 - Partly cloudy 8 - - - -
22/05:00am 18.5 SSW 4 6 1014.4 - 0.2 - Partly cloudy 10 - - - -
22/04:30am 18.4 S 5 7 1014.2 - 0.2 - Partly cloudy 10 - - - -
22/04:00am 18.6 SW 6 10 1013.8 - 0.2 - Partly cloudy 10 - - - -
22/03:30am 18.9 S 4 7 1013.6 - 0.2 - Partly cloudy 10 - - - -
22/03:00am 19.2 SSW 6 9 1013.7 - 0.2 - Cloudy 10 - - - -
22/02:30am 19.4 SSW 5 8 1013.9 - 0.2 - Partly cloudy 10 - - - -
22/02:00am 19.7 S 5 7 1013.9 - 0.2 - Partly cloudy 10 - - - -
22/01:30am 19.8 SSE 6 10 1014.1 - 0.2 - Partly cloudy 10 - - - -
22/01:00am 20.0 SSE 7 11 1014.4 - 0.2 - Partly cloudy 10 - - - -
22/12:30am 20.0 SE 7 11 1014.9 - 0.2 - Partly cloudy 10 - - - -
22/12:00am 20.2 SE 9 13 1015.3 - 0.2 - Mostly clear 10 - - - -
 
Date/Time
EST
Temp
°C
Wind Pressure Rain since
9am
mm
Weather Cloud Vis
km
Sea
Height
m
Swell
Dir  Spd
kts
Gust
kts
hPa Trend Height
m
Period
s
Dir
21/11:30pm 20.3 SE 9 16 1015.5 - 0.2 - Partly cloudy 10 - - - -
21/11:00pm 20.3 SE 8 14 1016.0 - 0.2 - Partly cloudy 10 - - - -
21/10:30pm 19.9 SE 8 13 1016.3 - 0.2 - Partly cloudy 10 - - - -
21/10:00pm 19.9 SE 11 16 1016.4 - 0.2 - Partly cloudy 10 - - - -
21/09:30pm 20.6 SSE 7 14 1016.5 - 0.2 - Partly cloudy 10 - - - -
21/09:00pm 20.6 SE 7 14 1016.6 - 0.2 - Mostly clear 10 - - - -
21/08:30pm 20.5 SE 7 13 1016.5 - 0.2 - Partly cloudy 10 - - - -
21/08:00pm 19.8 SSE 6 9 1016.5 - 0.2 - - 10 - - - -
21/07:30pm 19.4 SSE 6 9 1016.4 - 0.2 - Partly cloudy 10 - - - -
21/07:00pm 18.9 SSW 6 8 1016.3 - 0.2 - Partly cloudy 10 - - - -
21/06:30pm 19.1 SSW 5 6 1016.2 - 0.2 - Partly cloudy 10 - - - -
21/06:00pm 19.1 S 6 8 1016.1 - 0.2 - Cloudy 7 - - - -
21/05:30pm 20.6 SSW 7 10 1015.9 - 0.2 - Partly cloudy 10 - - - -
21/05:00pm 21.8 SSE 10 14 1015.5 - 0.2 - Partly cloudy 10 - - - -
21/04:30pm 23.4 ESE 11 15 1015.1 - 0.2 - Partly cloudy 10 - - - -
21/04:00pm 24.6 SE 11 17 1015.0 - 0.2 - Partly cloudy 10 - - - -
21/03:30pm 24.6 ESE 12 17 1015.2 - 0.2 - Partly cloudy 10 - - - -
21/03:00pm 24.5 ESE 10 15 1015.2 - 0.2 - Cloudy 10 - - - -
21/02:30pm 23.7 SE 8 13 1015.5 - 0.2 - Partly cloudy 10 - - - -
21/02:00pm 22.9 SE 9 15 1015.6 - 0.2 - Partly cloudy 10 - - - -
21/01:30pm 22.9 SE 10 16 1016.2 - 0.2 - Cloudy 10 - - - -
21/01:00pm 22.7 ESE 15 25 1016.8 - 0.2 - Partly cloudy 10 - - - -
21/12:57pm 23.5 ESE 16 25 1016.7 - 0.2 - Partly cloudy 10 - - - -
21/12:30pm 23.6 E 15 20 1017.0 - 0.2 - Partly cloudy 10 - - - -
21/12:00pm 23.7 SE 12 21 1017.0 - 0.2 - Cloudy 10 - - - -
21/11:30am 24.7 SE 11 16 1016.9 - 0.2 - Partly cloudy 10 - - - -
21/11:00am 23.6 ESE 12 18 1017.0 - 0.2 - Partly cloudy 10 - - - -
21/10:30am 23.3 ESE 10 16 1017.3 - 0.2 - Partly cloudy 10 - - - -
21/10:00am 24.8 ESE 15 20 1017.3 - 0.2 - Partly cloudy 10 - - - -
21/09:30am 24.4 SE 10 18 1017.4 - 0.0 - Partly cloudy 10 - - - -
21/09:00am 23.8 ESE 10 15 1017.3 - 3.4 - Cloudy 10 - - - -
21/08:30am 21.8 ESE 8 11 1017.3 - 3.4 - Partly cloudy 10 - - - -
21/08:00am 20.4 S 5 8 1017.2 - 3.4 - Partly cloudy 10 - - - -
21/07:39am 19.7 SSW 4 5 1017.3 - 3.4 - Partly cloudy 10 - - - -
21/07:30am 19.4 SE 3 7 1017.3 - 3.4 - Partly cloudy 6 - - - -
21/07:11am 19.1 S 6 10 1017.1 - 2.4 - Partly cloudy 5 - - - -
21/07:00am 19.7 SSW 6 9 1016.9 - 2.0 - Partly cloudy 10 - - - -
21/06:30am 18.4 SSW 6 8 1016.9 - 2.0 - Partly cloudy 10 - - - -
21/06:00am 18.0 SW 7 9 1016.6 - 2.0 - Mostly clear 10 - - - -
21/05:30am 17.5 SW 5 8 1016.3 - 2.0 - Partly cloudy 10 - - - -
21/05:00am 17.2 WSW 5 7 1016.1 - 2.0 - Partly cloudy 10 - - - -
21/04:41am 17.6 S 4 6 1016.0 - 2.0 - Partly cloudy 10 - - - -
21/04:30am 17.7 S 6 13 1015.8 - 2.0 - Partly cloudy 4 - - - -
21/04:21am 17.5 SSW 7 10 1015.8 - 1.6 - Partly cloudy 4 - - - -
21/04:00am 17.5 SW 6 9 1015.7 - 0.8 - Partly cloudy 10 - - - -
21/03:30am 17.9 SW 6 9 1015.7 - 0.8 - - 10 - - - -
21/03:00am 18.9 SW 6 7 1015.6 - 0.8 - - 10 - - - -
21/02:30am 20.4 SSE 6 11 1015.6 - 0.8 - Partly cloudy 10 - - - -
21/02:00am 20.5 SSE 8 13 1015.6 - 0.8 - Partly cloudy 10 - - - -
21/01:30am 19.7 SSE 7 15 1015.9 - 0.8 - - 10 - - - -
21/01:00am 17.9 SSW 7 11 1016.2 - 0.8 - Partly cloudy 10 - - - -
21/12:30am 17.9 SW 4 5 1016.6 - 0.8 - - 10 - - - -
21/12:00am 19.0 SW 5 10 1016.7 - 0.8 - - 10 - - - -
 
Date/Time
EST
Temp
°C
Wind Pressure Rain since
9am
mm
Weather Cloud Vis
km
Sea
Height
m
Swell
Dir  Spd
kts
Gust
kts
hPa Trend Height
m
Period
s
Dir
20/11:30pm 20.2 SSE 5 11 1016.9 - 0.8 - - 10 - - - -
20/11:00pm 20.3 S 5 7 1017.4 - 0.8 - - 10 - - - -
20/10:30pm 20.6 SE 6 9 1017.5 - 0.8 - - 10 - - - -
20/10:00pm 20.6 SE 6 13 1017.7 - 0.8 - - 10 - - - -
20/09:30pm 20.5 SE 6 9 1017.8 - 0.8 - - 10 - - - -
20/09:00pm 20.7 SE 6 9 1018.0 - 0.8 - Mostly clear 10 - - - -
20/08:30pm 20.8 SE 6 9 1017.8 - 0.8 - - 10 - - - -
20/08:00pm 21.0 SE 7 13 1017.8 - 0.8 - - 10 - - - -
20/07:30pm 21.2 SE 10 15 1017.5 - 0.8 - - 10 - - - -
20/07:00pm 21.2 SE 7 13 1017.3 - 0.8 - Partly cloudy 10 - - - -
20/06:30pm 21.5 SE 8 13 1017.1 - 0.8 - Partly cloudy 10 - - - -
20/06:00pm 22.0 SE 10 15 1017.0 - 0.8 - - 10 - - - -
20/05:30pm 22.8 SE 9 17 1016.7 - 0.8 - Partly cloudy 10 - - - -
20/05:00pm 23.4 SE 10 15 1016.5 - 0.8 - Partly cloudy 10 - - - -
20/04:30pm 23.9 SE 10 17 1016.4 - 0.8 - - 10 - - - -
20/04:00pm 23.5 SSE 7 11 1016.4 - 0.8 - Partly cloudy 10 - - - -
20/03:30pm 21.7 SE 11 22 1016.6 - 0.8 - Partly cloudy 10 - - - -
20/03:00pm 23.5 ESE 11 17 1016.5 - 0.8 - Cloudy 10 - - - -
20/02:30pm 23.7 SE 9 15 1016.5 - 0.8 - Partly cloudy 10 - - - -
20/02:00pm 23.5 SSE 9 15 1016.9 - 0.8 - Cloudy 10 - - - -
20/01:30pm 24.2 ESE 12 17 1017.1 - 0.8 - Partly cloudy 10 - - - -
20/01:00pm 23.7 SE 10 17 1017.2 - 0.8 - Partly cloudy 10 - - - -
20/12:30pm 24.0 SE 12 19 1017.3 - 0.8 - Partly cloudy 10 - - - -
20/12:00pm 23.9 ESE 12 18 1017.7 - 0.8 - Cloudy 10 - - - -
20/11:30am 24.9 SSE 10 16 1017.8 - 0.8 - Partly cloudy 10 - - - -
20/11:00am 24.6 SE 12 18 1017.9 - 0.8 - Partly cloudy 10 - - - -
20/10:30am 24.6 SE 13 19 1018.0 - 0.6 - Partly cloudy 10 - - - -
20/10:00am 24.0 SE 10 15 1018.0 - 0.6 - Partly cloudy 10 - - - -

Other Formats:

Comma delimited format used in spreadsheet applications
http://www.bom.gov.au/fwo/IDQ60701/IDQ60701.95565.axf

JavaScript Object Notation format (JSON) in row-major order
http://www.bom.gov.au/fwo/IDQ60701/IDQ60701.95565.json